sensor_id;sensor_type;location;lat;lon;timestamp;temperature;humidity
57026;DHT22;43961;52.940;6.834;2022-08-21T00:01:07;16.80;99.90
57026;DHT22;43961;52.940;6.834;2022-08-21T00:03:34;16.80;99.90
57026;DHT22;43961;52.940;6.834;2022-08-21T00:06:00;16.70;99.90
57026;DHT22;43961;52.940;6.834;2022-08-21T00:08:26;16.60;99.90
57026;DHT22;43961;52.940;6.834;2022-08-21T00:10:52;16.60;99.90
57026;DHT22;43961;52.940;6.834;2022-08-21T00:13:18;16.60;99.90
57026;DHT22;43961;52.940;6.834;2022-08-21T00:15:45;16.50;99.90
57026;DHT22;43961;52.940;6.834;2022-08-21T00:18:12;16.50;99.90
57026;DHT22;43961;52.940;6.834;2022-08-21T00:20:39;16.40;99.90
57026;DHT22;43961;52.940;6.834;2022-08-21T00:23:05;16.50;99.90
57026;DHT22;43961;52.940;6.834;2022-08-21T00:25:30;16.40;99.90
57026;DHT22;43961;52.940;6.834;2022-08-21T00:27:56;16.30;99.90
57026;DHT22;43961;52.940;6.834;2022-08-21T00:30:24;16.30;99.90
57026;DHT22;43961;52.940;6.834;2022-08-21T00:32:52;16.30;99.90
57026;DHT22;43961;52.940;6.834;2022-08-21T00:35:22;16.20;99.90
57026;DHT22;43961;52.940;6.834;2022-08-21T00:37:48;16.20;99.90
57026;DHT22;43961;52.940;6.834;2022-08-21T00:40:17;16.20;99.90
57026;DHT22;43961;52.940;6.834;2022-08-21T00:42:43;16.10;99.90
57026;DHT22;43961;52.940;6.834;2022-08-21T00:45:10;16.00;99.90
57026;DHT22;43961;52.940;6.834;2022-08-21T00:47:36;16.10;99.90
57026;DHT22;43961;52.940;6.834;2022-08-21T00:50:04;16.00;99.90
57026;DHT22;43961;52.940;6.834;2022-08-21T00:52:32;15.90;99.90
57026;DHT22;43961;52.940;6.834;2022-08-21T00:55:00;15.90;99.90
57026;DHT22;43961;52.940;6.834;2022-08-21T00:57:29;15.80;99.90
57026;DHT22;43961;52.940;6.834;2022-08-21T00:59:58;15.80;99.90
57026;DHT22;43961;52.940;6.834;2022-08-21T01:02:25;15.70;99.90
57026;DHT22;43961;52.940;6.834;2022-08-21T01:04:51;15.70;99.90
57026;DHT22;43961;52.940;6.834;2022-08-21T01:07:17;15.60;99.90
57026;DHT22;43961;52.940;6.834;2022-08-21T01:09:45;15.70;99.90
57026;DHT22;43961;52.940;6.834;2022-08-21T01:12:11;15.60;99.90
57026;DHT22;43961;52.940;6.834;2022-08-21T01:14:38;15.50;99.90
57026;DHT22;43961;52.940;6.834;2022-08-21T01:17:06;15.50;99.90
57026;DHT22;43961;52.940;6.834;2022-08-21T01:19:33;15.50;99.90
57026;DHT22;43961;52.940;6.834;2022-08-21T01:21:59;15.50;99.90
57026;DHT22;43961;52.940;6.834;2022-08-21T01:24:25;15.40;99.90
57026;DHT22;43961;52.940;6.834;2022-08-21T01:26:51;15.40;99.90
57026;DHT22;43961;52.940;6.834;2022-08-21T01:31:52;15.30;99.90
57026;DHT22;43961;52.940;6.834;2022-08-21T01:34:19;15.30;99.90
57026;DHT22;43961;52.940;6.834;2022-08-21T01:36:45;15.20;99.90
57026;DHT22;43961;52.940;6.834;2022-08-21T01:39:12;15.20;99.90
57026;DHT22;43961;52.940;6.834;2022-08-21T01:41:37;15.20;99.90
57026;DHT22;43961;52.940;6.834;2022-08-21T01:44:03;15.10;99.90
57026;DHT22;43961;52.940;6.834;2022-08-21T01:46:29;15.10;99.90
57026;DHT22;43961;52.940;6.834;2022-08-21T01:48:55;15.10;99.90
57026;DHT22;43961;52.940;6.834;2022-08-21T01:51:20;15.10;99.90
57026;DHT22;43961;52.940;6.834;2022-08-21T01:53:46;15.00;99.90
57026;DHT22;43961;52.940;6.834;2022-08-21T01:56:15;15.00;99.90
57026;DHT22;43961;52.940;6.834;2022-08-21T01:58:43;14.90;99.90
57026;DHT22;43961;52.940;6.834;2022-08-21T02:01:10;14.90;99.90
57026;DHT22;43961;52.940;6.834;2022-08-21T02:03:35;14.90;99.90
57026;DHT22;43961;52.940;6.834;2022-08-21T02:06:02;14.90;99.90
57026;DHT22;43961;52.940;6.834;2022-08-21T02:08:28;14.80;99.90
57026;DHT22;43961;52.940;6.834;2022-08-21T02:10:54;14.80;99.90
57026;DHT22;43961;52.940;6.834;2022-08-21T02:13:20;14.80;99.90
57026;DHT22;43961;52.940;6.834;2022-08-21T02:15:46;14.80;99.90
57026;DHT22;43961;52.940;6.834;2022-08-21T02:18:11;14.70;99.90
57026;DHT22;43961;52.940;6.834;2022-08-21T02:20:40;14.60;99.90
57026;DHT22;43961;52.940;6.834;2022-08-21T02:23:08;14.50;99.90
57026;DHT22;43961;52.940;6.834;2022-08-21T02:25:34;14.40;99.90
57026;DHT22;43961;52.940;6.834;2022-08-21T02:28:04;14.40;99.90
57026;DHT22;43961;52.940;6.834;2022-08-21T02:30:37;14.40;99.90
57026;DHT22;43961;52.940;6.834;2022-08-21T02:33:06;14.40;99.90
57026;DHT22;43961;52.940;6.834;2022-08-21T02:35:32;14.40;99.90
57026;DHT22;43961;52.940;6.834;2022-08-21T02:38:09;14.40;99.90
57026;DHT22;43961;52.940;6.834;2022-08-21T02:40:37;14.40;99.90
57026;DHT22;43961;52.940;6.834;2022-08-21T02:43:05;14.40;99.90
57026;DHT22;43961;52.940;6.834;2022-08-21T02:45:32;14.40;99.90
57026;DHT22;43961;52.940;6.834;2022-08-21T02:48:00;14.30;99.90
57026;DHT22;43961;52.940;6.834;2022-08-21T02:50:38;14.30;99.90
57026;DHT22;43961;52.940;6.834;2022-08-21T02:53:05;14.30;99.90
57026;DHT22;43961;52.940;6.834;2022-08-21T02:55:32;14.20;99.90
57026;DHT22;43961;52.940;6.834;2022-08-21T02:57:59;14.10;99.90
57026;DHT22;43961;52.940;6.834;2022-08-21T03:00:27;14.10;99.90
57026;DHT22;43961;52.940;6.834;2022-08-21T03:02:54;14.10;99.90
57026;DHT22;43961;52.940;6.834;2022-08-21T03:05:22;14.00;99.90
57026;DHT22;43961;52.940;6.834;2022-08-21T03:07:47;14.00;99.90
57026;DHT22;43961;52.940;6.834;2022-08-21T03:10:14;14.00;99.90
57026;DHT22;43961;52.940;6.834;2022-08-21T03:12:40;14.00;99.90
57026;DHT22;43961;52.940;6.834;2022-08-21T03:15:08;14.00;99.90
57026;DHT22;43961;52.940;6.834;2022-08-21T03:17:35;14.00;99.90
57026;DHT22;43961;52.940;6.834;2022-08-21T03:20:01;14.00;99.90
57026;DHT22;43961;52.940;6.834;2022-08-21T03:22:28;13.90;99.90
57026;DHT22;43961;52.940;6.834;2022-08-21T03:24:54;14.00;99.90
57026;DHT22;43961;52.940;6.834;2022-08-21T03:27:19;13.90;99.90
57026;DHT22;43961;52.940;6.834;2022-08-21T03:29:45;13.90;99.90
57026;DHT22;43961;52.940;6.834;2022-08-21T03:32:12;13.90;99.90
57026;DHT22;43961;52.940;6.834;2022-08-21T03:34:38;13.90;99.90
57026;DHT22;43961;52.940;6.834;2022-08-21T03:37:07;13.90;99.90
57026;DHT22;43961;52.940;6.834;2022-08-21T03:39:33;13.90;99.90
57026;DHT22;43961;52.940;6.834;2022-08-21T03:41:58;13.90;99.90
57026;DHT22;43961;52.940;6.834;2022-08-21T03:44:25;13.90;99.90
57026;DHT22;43961;52.940;6.834;2022-08-21T03:46:54;13.80;99.90
57026;DHT22;43961;52.940;6.834;2022-08-21T03:49:20;13.80;99.90
57026;DHT22;43961;52.940;6.834;2022-08-21T03:51:46;13.80;99.90
57026;DHT22;43961;52.940;6.834;2022-08-21T03:54:11;13.80;99.90
57026;DHT22;43961;52.940;6.834;2022-08-21T03:56:37;13.70;99.90
57026;DHT22;43961;52.940;6.834;2022-08-21T03:59:05;13.70;99.90
57026;DHT22;43961;52.940;6.834;2022-08-21T04:01:31;13.70;99.90
57026;DHT22;43961;52.940;6.834;2022-08-21T04:03:57;13.70;99.90
57026;DHT22;43961;52.940;6.834;2022-08-21T04:06:22;13.70;99.90
57026;DHT22;43961;52.940;6.834;2022-08-21T04:08:48;13.60;99.90
57026;DHT22;43961;52.940;6.834;2022-08-21T04:11:14;13.60;99.90
57026;DHT22;43961;52.940;6.834;2022-08-21T04:13:40;13.60;99.90
57026;DHT22;43961;52.940;6.834;2022-08-21T04:16:06;13.60;99.90
57026;DHT22;43961;52.940;6.834;2022-08-21T04:18:32;13.60;99.90
57026;DHT22;43961;52.940;6.834;2022-08-21T04:20:59;13.60;99.90
57026;DHT22;43961;52.940;6.834;2022-08-21T04:23:27;13.60;99.90
57026;DHT22;43961;52.940;6.834;2022-08-21T04:25:54;13.50;99.90
57026;DHT22;43961;52.940;6.834;2022-08-21T04:28:22;13.60;99.90
57026;DHT22;43961;52.940;6.834;2022-08-21T04:30:48;13.50;99.90
57026;DHT22;43961;52.940;6.834;2022-08-21T04:33:15;13.40;99.90
57026;DHT22;43961;52.940;6.834;2022-08-21T04:35:41;13.50;99.90
57026;DHT22;43961;52.940;6.834;2022-08-21T04:38:08;13.40;99.90
57026;DHT22;43961;52.940;6.834;2022-08-21T04:40:33;13.50;99.90
57026;DHT22;43961;52.940;6.834;2022-08-21T04:43:08;13.50;99.90
57026;DHT22;43961;52.940;6.834;2022-08-21T04:45:40;13.60;99.90
57026;DHT22;43961;52.940;6.834;2022-08-21T04:48:08;13.80;99.90
57026;DHT22;43961;52.940;6.834;2022-08-21T04:50:54;13.90;99.90
57026;DHT22;43961;52.940;6.834;2022-08-21T04:53:30;14.10;99.90
57026;DHT22;43961;52.940;6.834;2022-08-21T04:55:59;14.20;99.90
57026;DHT22;43961;52.940;6.834;2022-08-21T04:58:26;14.40;99.90
57026;DHT22;43961;52.940;6.834;2022-08-21T05:00:54;14.50;99.90
57026;DHT22;43961;52.940;6.834;2022-08-21T05:03:21;14.70;99.90
57026;DHT22;43961;52.940;6.834;2022-08-21T05:05:48;14.80;99.90
57026;DHT22;43961;52.940;6.834;2022-08-21T05:08:16;15.00;99.90
57026;DHT22;43961;52.940;6.834;2022-08-21T05:10:43;15.20;99.90
57026;DHT22;43961;52.940;6.834;2022-08-21T05:13:11;15.30;99.90
57026;DHT22;43961;52.940;6.834;2022-08-21T05:15:38;15.50;99.90
57026;DHT22;43961;52.940;6.834;2022-08-21T05:18:04;15.60;99.90
57026;DHT22;43961;52.940;6.834;2022-08-21T05:20:29;15.70;99.90
57026;DHT22;43961;52.940;6.834;2022-08-21T05:22:55;15.90;99.90
57026;DHT22;43961;52.940;6.834;2022-08-21T05:25:21;16.10;99.90
57026;DHT22;43961;52.940;6.834;2022-08-21T05:27:46;16.20;99.90
57026;DHT22;43961;52.940;6.834;2022-08-21T05:30:12;16.30;99.90
57026;DHT22;43961;52.940;6.834;2022-08-21T05:32:38;16.40;99.90
57026;DHT22;43961;52.940;6.834;2022-08-21T05:35:05;16.50;99.90
57026;DHT22;43961;52.940;6.834;2022-08-21T05:37:31;16.50;99.90
57026;DHT22;43961;52.940;6.834;2022-08-21T05:39:59;16.60;99.90
57026;DHT22;43961;52.940;6.834;2022-08-21T05:42:24;16.60;99.90
57026;DHT22;43961;52.940;6.834;2022-08-21T05:44:50;16.70;99.90
57026;DHT22;43961;52.940;6.834;2022-08-21T05:47:15;16.70;99.90
57026;DHT22;43961;52.940;6.834;2022-08-21T05:49:41;16.60;99.90
57026;DHT22;43961;52.940;6.834;2022-08-21T05:52:06;16.60;99.90
57026;DHT22;43961;52.940;6.834;2022-08-21T05:54:32;16.50;99.90
57026;DHT22;43961;52.940;6.834;2022-08-21T05:56:58;16.40;99.90
57026;DHT22;43961;52.940;6.834;2022-08-21T05:59:24;16.30;99.90
57026;DHT22;43961;52.940;6.834;2022-08-21T06:01:49;16.30;99.90
57026;DHT22;43961;52.940;6.834;2022-08-21T06:04:18;16.20;99.90
57026;DHT22;43961;52.940;6.834;2022-08-21T06:06:43;16.20;99.90
57026;DHT22;43961;52.940;6.834;2022-08-21T06:09:09;16.20;99.90
57026;DHT22;43961;52.940;6.834;2022-08-21T06:11:34;16.20;99.90
57026;DHT22;43961;52.940;6.834;2022-08-21T06:14:00;16.20;99.90
57026;DHT22;43961;52.940;6.834;2022-08-21T06:16:26;16.20;99.90
57026;DHT22;43961;52.940;6.834;2022-08-21T06:18:52;16.20;99.90
57026;DHT22;43961;52.940;6.834;2022-08-21T06:21:18;16.20;99.90
57026;DHT22;43961;52.940;6.834;2022-08-21T06:23:44;16.20;99.90
57026;DHT22;43961;52.940;6.834;2022-08-21T06:26:12;16.30;99.90
57026;DHT22;43961;52.940;6.834;2022-08-21T06:28:38;16.20;99.90
57026;DHT22;43961;52.940;6.834;2022-08-21T06:31:15;16.30;99.90
57026;DHT22;43961;52.940;6.834;2022-08-21T06:33:42;16.30;99.90
57026;DHT22;43961;52.940;6.834;2022-08-21T06:36:08;16.40;99.90
57026;DHT22;43961;52.940;6.834;2022-08-21T06:38:34;16.40;99.90
57026;DHT22;43961;52.940;6.834;2022-08-21T06:41:01;16.40;99.90
57026;DHT22;43961;52.940;6.834;2022-08-21T06:43:27;16.50;99.90
57026;DHT22;43961;52.940;6.834;2022-08-21T06:45:53;16.60;99.90
57026;DHT22;43961;52.940;6.834;2022-08-21T06:48:18;16.60;99.90
57026;DHT22;43961;52.940;6.834;2022-08-21T06:50:44;16.70;99.90
57026;DHT22;43961;52.940;6.834;2022-08-21T06:53:12;16.80;99.90
57026;DHT22;43961;52.940;6.834;2022-08-21T06:55:39;16.90;99.90
57026;DHT22;43961;52.940;6.834;2022-08-21T06:58:05;17.10;99.90
57026;DHT22;43961;52.940;6.834;2022-08-21T07:00:32;17.40;99.90
57026;DHT22;43961;52.940;6.834;2022-08-21T07:02:58;17.60;99.90
57026;DHT22;43961;52.940;6.834;2022-08-21T07:05:28;18.00;99.90
57026;DHT22;43961;52.940;6.834;2022-08-21T07:07:54;18.40;99.90
57026;DHT22;43961;52.940;6.834;2022-08-21T07:10:20;18.70;99.90
57026;DHT22;43961;52.940;6.834;2022-08-21T07:12:46;19.00;99.90
57026;DHT22;43961;52.940;6.834;2022-08-21T07:15:12;19.40;99.90
57026;DHT22;43961;52.940;6.834;2022-08-21T07:17:37;19.70;99.90
57026;DHT22;43961;52.940;6.834;2022-08-21T07:20:05;19.90;99.90
57026;DHT22;43961;52.940;6.834;2022-08-21T07:22:32;20.30;99.90
57026;DHT22;43961;52.940;6.834;2022-08-21T07:24:58;20.60;99.90
57026;DHT22;43961;52.940;6.834;2022-08-21T07:27:24;20.80;99.90
57026;DHT22;43961;52.940;6.834;2022-08-21T07:29:49;21.10;99.90
57026;DHT22;43961;52.940;6.834;2022-08-21T07:32:15;21.20;99.90
57026;DHT22;43961;52.940;6.834;2022-08-21T07:34:41;21.50;99.90
57026;DHT22;43961;52.940;6.834;2022-08-21T07:37:07;21.70;99.90
57026;DHT22;43961;52.940;6.834;2022-08-21T07:39:33;21.90;99.90
57026;DHT22;43961;52.940;6.834;2022-08-21T07:41:58;22.00;99.90
57026;DHT22;43961;52.940;6.834;2022-08-21T07:44:24;22.20;99.90
57026;DHT22;43961;52.940;6.834;2022-08-21T07:46:50;22.40;99.90
57026;DHT22;43961;52.940;6.834;2022-08-21T07:49:16;22.60;99.90
57026;DHT22;43961;52.940;6.834;2022-08-21T07:51:42;22.80;99.90
57026;DHT22;43961;52.940;6.834;2022-08-21T07:54:07;22.80;99.90
57026;DHT22;43961;52.940;6.834;2022-08-21T07:56:34;23.10;99.90
57026;DHT22;43961;52.940;6.834;2022-08-21T07:58:59;23.10;99.90
57026;DHT22;43961;52.940;6.834;2022-08-21T08:01:25;23.30;99.90
57026;DHT22;43961;52.940;6.834;2022-08-21T08:03:51;23.40;99.90
57026;DHT22;43961;52.940;6.834;2022-08-21T08:06:17;23.50;99.90
57026;DHT22;43961;52.940;6.834;2022-08-21T08:08:45;23.70;99.90
57026;DHT22;43961;52.940;6.834;2022-08-21T08:11:12;23.70;99.90
57026;DHT22;43961;52.940;6.834;2022-08-21T08:13:46;24.00;99.90
57026;DHT22;43961;52.940;6.834;2022-08-21T08:16:13;24.10;99.90
57026;DHT22;43961;52.940;6.834;2022-08-21T08:18:39;24.20;99.90
57026;DHT22;43961;52.940;6.834;2022-08-21T08:21:07;24.30;99.90
57026;DHT22;43961;52.940;6.834;2022-08-21T08:23:33;24.40;99.70
57026;DHT22;43961;52.940;6.834;2022-08-21T08:26:01;24.50;99.90
57026;DHT22;43961;52.940;6.834;2022-08-21T08:28:30;24.60;99.30
57026;DHT22;43961;52.940;6.834;2022-08-21T08:30:57;24.50;99.90
57026;DHT22;43961;52.940;6.834;2022-08-21T08:33:23;24.50;99.90
57026;DHT22;43961;52.940;6.834;2022-08-21T08:35:50;24.70;99.90
57026;DHT22;43961;52.940;6.834;2022-08-21T08:38:17;25.00;99.50
57026;DHT22;43961;52.940;6.834;2022-08-21T08:43:30;24.60;91.00
57026;DHT22;43961;52.940;6.834;2022-08-21T08:45:59;24.70;95.00
57026;DHT22;43961;52.940;6.834;2022-08-21T08:51:40;24.80;82.60
57026;DHT22;43961;52.940;6.834;2022-08-21T08:54:15;24.90;89.60
57026;DHT22;43961;52.940;6.834;2022-08-21T08:56:43;25.10;90.50
57026;DHT22;43961;52.940;6.834;2022-08-21T08:59:25;25.10;89.30
57026;DHT22;43961;52.940;6.834;2022-08-21T09:01:52;25.30;84.00
57026;DHT22;43961;52.940;6.834;2022-08-21T09:04:22;25.20;81.50
57026;DHT22;43961;52.940;6.834;2022-08-21T09:06:57;24.90;84.40
57026;DHT22;43961;52.940;6.834;2022-08-21T09:09:55;24.70;82.50
57026;DHT22;43961;52.940;6.834;2022-08-21T09:15:34;25.00;78.70
57026;DHT22;43961;52.940;6.834;2022-08-21T09:18:19;25.10;78.70
57026;DHT22;43961;52.940;6.834;2022-08-21T09:21:16;25.30;80.30
57026;DHT22;43961;52.940;6.834;2022-08-21T09:24:00;25.60;76.10
57026;DHT22;43961;52.940;6.834;2022-08-21T09:27:04;25.60;74.40
57026;DHT22;43961;52.940;6.834;2022-08-21T09:29:30;25.50;73.40
57026;DHT22;43961;52.940;6.834;2022-08-21T09:31:56;25.60;74.60
57026;DHT22;43961;52.940;6.834;2022-08-21T09:34:29;25.50;74.10
57026;DHT22;43961;52.940;6.834;2022-08-21T09:36:57;25.70;74.00
57026;DHT22;43961;52.940;6.834;2022-08-21T09:39:41;25.90;74.10
57026;DHT22;43961;52.940;6.834;2022-08-21T09:42:09;26.10;71.40
57026;DHT22;43961;52.940;6.834;2022-08-21T09:44:39;26.00;73.10
57026;DHT22;43961;52.940;6.834;2022-08-21T09:47:07;25.90;72.20
57026;DHT22;43961;52.940;6.834;2022-08-21T09:49:36;25.80;72.60
57026;DHT22;43961;52.940;6.834;2022-08-21T09:52:06;25.70;73.60
57026;DHT22;43961;52.940;6.834;2022-08-21T09:54:39;25.60;74.10
57026;DHT22;43961;52.940;6.834;2022-08-21T09:59:52;25.50;73.10
57026;DHT22;43961;52.940;6.834;2022-08-21T10:02:26;25.60;71.80
57026;DHT22;43961;52.940;6.834;2022-08-21T10:04:55;25.60;71.70
57026;DHT22;43961;52.940;6.834;2022-08-21T10:07:24;26.00;73.50
57026;DHT22;43961;52.940;6.834;2022-08-21T10:10:08;26.00;68.10
57026;DHT22;43961;52.940;6.834;2022-08-21T10:18:13;26.40;65.30
57026;DHT22;43961;52.940;6.834;2022-08-21T10:20:45;26.50;66.60
57026;DHT22;43961;52.940;6.834;2022-08-21T10:26:39;26.50;66.20
57026;DHT22;43961;52.940;6.834;2022-08-21T10:34:26;26.80;65.40
57026;DHT22;43961;52.940;6.834;2022-08-21T10:37:35;26.80;64.50
57026;DHT22;43961;52.940;6.834;2022-08-21T10:40:06;26.90;66.10
57026;DHT22;43961;52.940;6.834;2022-08-21T10:42:46;27.00;63.90
57026;DHT22;43961;52.940;6.834;2022-08-21T10:48:19;26.90;63.80
57026;DHT22;43961;52.940;6.834;2022-08-21T10:50:56;26.90;62.90
57026;DHT22;43961;52.940;6.834;2022-08-21T10:54:13;27.00;64.80
57026;DHT22;43961;52.940;6.834;2022-08-21T10:56:43;27.20;65.40
57026;DHT22;43961;52.940;6.834;2022-08-21T10:59:55;27.40;65.70
57026;DHT22;43961;52.940;6.834;2022-08-21T11:02:40;27.50;62.70
57026;DHT22;43961;52.940;6.834;2022-08-21T11:05:21;27.40;61.70
57026;DHT22;43961;52.940;6.834;2022-08-21T11:10:52;27.30;62.10
57026;DHT22;43961;52.940;6.834;2022-08-21T11:27:18;27.60;59.60
57026;DHT22;43961;52.940;6.834;2022-08-21T11:29:53;27.60;60.90
57026;DHT22;43961;52.940;6.834;2022-08-21T11:45:58;28.40;58.10
57026;DHT22;43961;52.940;6.834;2022-08-21T11:50:57;28.20;58.20
57026;DHT22;43961;52.940;6.834;2022-08-21T11:53:38;28.00;58.60
57026;DHT22;43961;52.940;6.834;2022-08-21T11:56:11;28.20;57.80
57026;DHT22;43961;52.940;6.834;2022-08-21T11:59:02;28.10;58.70
57026;DHT22;43961;52.940;6.834;2022-08-21T12:01:33;28.00;58.60
57026;DHT22;43961;52.940;6.834;2022-08-21T12:04:04;27.90;59.90
57026;DHT22;43961;52.940;6.834;2022-08-21T12:06:41;27.80;60.50
57026;DHT22;43961;52.940;6.834;2022-08-21T12:09:10;27.70;59.50
57026;DHT22;43961;52.940;6.834;2022-08-21T12:11:49;27.60;59.60
57026;DHT22;43961;52.940;6.834;2022-08-21T12:14:17;27.70;59.50
57026;DHT22;43961;52.940;6.834;2022-08-21T12:16:46;27.40;59.50
57026;DHT22;43961;52.940;6.834;2022-08-21T12:19:35;27.10;60.40
57026;DHT22;43961;52.940;6.834;2022-08-21T12:24:36;27.10;61.10
57026;DHT22;43961;52.940;6.834;2022-08-21T12:29:47;27.70;59.20
57026;DHT22;43961;52.940;6.834;2022-08-21T12:37:20;27.50;58.60
57026;DHT22;43961;52.940;6.834;2022-08-21T12:39:49;27.60;59.70
57026;DHT22;43961;52.940;6.834;2022-08-21T12:42:31;27.60;59.30
57026;DHT22;43961;52.940;6.834;2022-08-21T12:45:03;27.50;57.90
57026;DHT22;43961;52.940;6.834;2022-08-21T12:50:05;27.40;58.60
57026;DHT22;43961;52.940;6.834;2022-08-21T12:52:40;27.40;58.30
57026;DHT22;43961;52.940;6.834;2022-08-21T12:55:12;27.40;56.80
57026;DHT22;43961;52.940;6.834;2022-08-21T12:57:40;27.10;57.30
57026;DHT22;43961;52.940;6.834;2022-08-21T13:00:08;26.90;58.40
57026;DHT22;43961;52.940;6.834;2022-08-21T13:02:45;26.80;58.70
57026;DHT22;43961;52.940;6.834;2022-08-21T13:05:14;26.60;59.60
57026;DHT22;43961;52.940;6.834;2022-08-21T13:07:46;26.70;60.30
57026;DHT22;43961;52.940;6.834;2022-08-21T13:10:23;26.60;60.80
57026;DHT22;43961;52.940;6.834;2022-08-21T13:12:49;26.40;60.80
57026;DHT22;43961;52.940;6.834;2022-08-21T13:15:25;26.20;61.20
57026;DHT22;43961;52.940;6.834;2022-08-21T13:17:51;26.20;61.80
57026;DHT22;43961;52.940;6.834;2022-08-21T13:20:27;26.00;62.50
57026;DHT22;43961;52.940;6.834;2022-08-21T13:22:53;25.90;63.00
57026;DHT22;43961;52.940;6.834;2022-08-21T13:25:21;25.80;63.20
57026;DHT22;43961;52.940;6.834;2022-08-21T13:28:10;25.60;64.30
57026;DHT22;43961;52.940;6.834;2022-08-21T13:30:52;25.60;64.70
57026;DHT22;43961;52.940;6.834;2022-08-21T13:33:20;25.40;64.80
57026;DHT22;43961;52.940;6.834;2022-08-21T13:35:50;25.40;65.50
57026;DHT22;43961;52.940;6.834;2022-08-21T13:38:20;25.40;67.60
57026;DHT22;43961;52.940;6.834;2022-08-21T13:40:49;25.30;70.20
57026;DHT22;43961;52.940;6.834;2022-08-21T13:43:19;25.40;74.80
57026;DHT22;43961;52.940;6.834;2022-08-21T13:45:52;25.40;75.00
57026;DHT22;43961;52.940;6.834;2022-08-21T13:48:19;25.40;76.90
57026;DHT22;43961;52.940;6.834;2022-08-21T13:50:46;25.60;76.80
57026;DHT22;43961;52.940;6.834;2022-08-21T13:53:33;25.50;77.60
57026;DHT22;43961;52.940;6.834;2022-08-21T13:56:00;25.70;79.40
57026;DHT22;43961;52.940;6.834;2022-08-21T13:58:45;25.60;78.50
57026;DHT22;43961;52.940;6.834;2022-08-21T14:01:50;25.60;78.80
57026;DHT22;43961;52.940;6.834;2022-08-21T14:04:26;25.40;78.20
57026;DHT22;43961;52.940;6.834;2022-08-21T14:06:53;25.50;80.30
57026;DHT22;43961;52.940;6.834;2022-08-21T14:09:33;25.60;79.50
57026;DHT22;43961;52.940;6.834;2022-08-21T14:12:15;25.60;79.50
57026;DHT22;43961;52.940;6.834;2022-08-21T14:14:43;25.60;81.20
57026;DHT22;43961;52.940;6.834;2022-08-21T14:17:30;25.60;82.00
57026;DHT22;43961;52.940;6.834;2022-08-21T14:19:57;25.60;79.30
57026;DHT22;43961;52.940;6.834;2022-08-21T14:22:27;25.60;79.30
57026;DHT22;43961;52.940;6.834;2022-08-21T14:25:11;25.40;78.80
57026;DHT22;43961;52.940;6.834;2022-08-21T14:27:43;25.40;80.20
57026;DHT22;43961;52.940;6.834;2022-08-21T14:30:21;25.40;80.30
57026;DHT22;43961;52.940;6.834;2022-08-21T14:32:47;25.40;80.90
57026;DHT22;43961;52.940;6.834;2022-08-21T14:35:14;25.50;79.50
57026;DHT22;43961;52.940;6.834;2022-08-21T14:37:46;25.50;78.40
57026;DHT22;43961;52.940;6.834;2022-08-21T14:40:13;25.60;78.10
57026;DHT22;43961;52.940;6.834;2022-08-21T14:42:41;25.70;78.10
57026;DHT22;43961;52.940;6.834;2022-08-21T14:45:26;25.50;77.10
57026;DHT22;43961;52.940;6.834;2022-08-21T14:47:53;25.40;77.60
57026;DHT22;43961;52.940;6.834;2022-08-21T14:50:18;25.30;77.70
57026;DHT22;43961;52.940;6.834;2022-08-21T14:52:44;25.40;78.40
57026;DHT22;43961;52.940;6.834;2022-08-21T14:55:12;25.50;78.80
57026;DHT22;43961;52.940;6.834;2022-08-21T14:57:41;25.40;79.30
57026;DHT22;43961;52.940;6.834;2022-08-21T15:00:11;25.40;80.00
57026;DHT22;43961;52.940;6.834;2022-08-21T15:02:37;25.40;78.30
57026;DHT22;43961;52.940;6.834;2022-08-21T15:05:03;25.30;77.00
57026;DHT22;43961;52.940;6.834;2022-08-21T15:07:29;25.30;77.90
57026;DHT22;43961;52.940;6.834;2022-08-21T15:09:55;25.40;79.40
57026;DHT22;43961;52.940;6.834;2022-08-21T15:12:21;25.40;79.20
57026;DHT22;43961;52.940;6.834;2022-08-21T15:14:48;25.40;79.00
57026;DHT22;43961;52.940;6.834;2022-08-21T15:17:13;25.40;79.00
57026;DHT22;43961;52.940;6.834;2022-08-21T15:19:39;25.40;79.60
57026;DHT22;43961;52.940;6.834;2022-08-21T15:22:05;25.40;77.00
57026;DHT22;43961;52.940;6.834;2022-08-21T15:24:31;25.30;76.70
57026;DHT22;43961;52.940;6.834;2022-08-21T15:27:00;25.30;76.60
57026;DHT22;43961;52.940;6.834;2022-08-21T15:29:26;25.20;76.10
57026;DHT22;43961;52.940;6.834;2022-08-21T15:34:19;25.20;76.20
57026;DHT22;43961;52.940;6.834;2022-08-21T15:36:45;25.10;76.30
57026;DHT22;43961;52.940;6.834;2022-08-21T15:39:11;25.10;76.90
57026;DHT22;43961;52.940;6.834;2022-08-21T15:41:36;25.20;77.40
57026;DHT22;43961;52.940;6.834;2022-08-21T15:44:02;25.20;77.00
57026;DHT22;43961;52.940;6.834;2022-08-21T15:46:28;25.10;75.70
57026;DHT22;43961;52.940;6.834;2022-08-21T15:48:54;25.00;76.20
57026;DHT22;43961;52.940;6.834;2022-08-21T15:51:19;24.90;76.60
57026;DHT22;43961;52.940;6.834;2022-08-21T15:53:45;24.80;77.10
57026;DHT22;43961;52.940;6.834;2022-08-21T15:56:20;24.80;77.90
57026;DHT22;43961;52.940;6.834;2022-08-21T15:58:47;24.80;77.20
57026;DHT22;43961;52.940;6.834;2022-08-21T16:01:13;24.80;77.50
57026;DHT22;43961;52.940;6.834;2022-08-21T16:03:39;24.80;77.10
57026;DHT22;43961;52.940;6.834;2022-08-21T16:06:05;24.80;77.60
57026;DHT22;43961;52.940;6.834;2022-08-21T16:08:30;24.70;76.40
57026;DHT22;43961;52.940;6.834;2022-08-21T16:10:56;24.60;76.70
57026;DHT22;43961;52.940;6.834;2022-08-21T16:13:29;24.50;76.10
57026;DHT22;43961;52.940;6.834;2022-08-21T16:15:56;24.60;78.50
57026;DHT22;43961;52.940;6.834;2022-08-21T16:18:22;24.60;81.10
57026;DHT22;43961;52.940;6.834;2022-08-21T16:20:49;24.50;85.40
57026;DHT22;43961;52.940;6.834;2022-08-21T16:23:15;24.40;90.50
57026;DHT22;43961;52.940;6.834;2022-08-21T16:25:41;24.30;91.40
57026;DHT22;43961;52.940;6.834;2022-08-21T16:28:08;24.10;95.20
57026;DHT22;43961;52.940;6.834;2022-08-21T16:30:35;24.00;98.10
57026;DHT22;43961;52.940;6.834;2022-08-21T16:33:02;23.70;99.90
57026;DHT22;43961;52.940;6.834;2022-08-21T16:35:29;23.50;99.90
57026;DHT22;43961;52.940;6.834;2022-08-21T16:37:56;23.50;99.90
57026;DHT22;43961;52.940;6.834;2022-08-21T16:40:22;23.40;99.90
57026;DHT22;43961;52.940;6.834;2022-08-21T16:42:48;23.50;99.90
57026;DHT22;43961;52.940;6.834;2022-08-21T16:45:17;23.40;99.90
57026;DHT22;43961;52.940;6.834;2022-08-21T16:47:43;23.20;99.90
57026;DHT22;43961;52.940;6.834;2022-08-21T16:50:16;23.10;99.90
57026;DHT22;43961;52.940;6.834;2022-08-21T16:52:43;23.00;99.90
57026;DHT22;43961;52.940;6.834;2022-08-21T16:55:09;22.80;99.90
57026;DHT22;43961;52.940;6.834;2022-08-21T16:57:35;22.70;99.90
57026;DHT22;43961;52.940;6.834;2022-08-21T17:00:04;22.60;99.90
57026;DHT22;43961;52.940;6.834;2022-08-21T17:02:36;22.50;99.90